HEBOWX Weather Reports


Display with metric or nautical units.
time (UTC)temp
F
wind
direction
speed
MPH
gust
MPH
rain 1hr
in
rain 24hr
in
rain mn
in
humidity
%
barometer
mb
20260504191527 61 0 0.0 0.0 0.00 0.00 0.00 46 1010.6
20260504191027 61 0 0.0 0.0 0.00 0.00 0.00 47 1010.7
20260504190528 62 0 0.0 0.0 0.00 0.00 0.00 47 1010.6
20260504190119 61 0 0.0 0.0 0.00 0.00 0.00 46 1010.7
20260504190027 61 0 0.0 0.0 0.00 0.00 0.00 46 1010.7
20260504185527 61 0 0.0 0.0 0.00 0.00 0.00 46 1010.7
20260504185026 61 0 0.0 0.0 0.00 0.00 0.00 45 1010.6
20260504184526 61 0 0.0 0.0 0.00 0.00 0.00 45 1010.7
20260504184027 61 0 0.0 0.0 0.00 0.00 0.00 44 1010.7
20260504183527 61 0 0.0 0.0 0.00 0.00 0.00 44 1010.6
20260504183027 61 0 0.0 0.0 0.00 0.00 0.00 43 1010.5
20260504182526 61 0 0.0 0.0 0.00 0.00 0.00 44 1010.5
20260504182026 62 0 0.0 0.0 0.00 0.00 0.00 45 1010.5
20260504181529 62 0 0.0 0.0 0.00 0.00 0.00 43 1010.5
20260504181027 62 0 0.0 0.0 0.00 0.00 0.00 42 1010.4
20260504180527 62 0 0.0 0.0 0.00 0.00 0.00 41 1010.3
20260504180026 62 0 0.0 0.0 0.00 0.00 0.00 35 1010.3
20260504175528 62 0 0.0 0.0 0.00 0.00 0.00 38 1010.3
20260504175026 62 0 0.0 0.0 0.00 0.00 0.00 35 1010.2
20260504174527 62 0 0.0 0.0 0.00 0.00 0.00 35 1010.2
20260504174026 62 0 0.0 0.0 0.00 0.00 0.00 38 1010.3
20260504173526 62 0 0.0 0.0 0.00 0.00 0.00 37 1010.3
20260504173026 62 0 0.0 0.0 0.00 0.00 0.00 36 1010.3
20260504172526 62 2 0.0 0.0 0.00 0.00 0.00 36 1010.3
20260504172028 62 0 0.0 0.0 0.00 0.00 0.00 31 1010.3
20260504171526 62 0 0.0 0.0 0.00 0.00 0.00 31 1010.2
20260504171026 62 0 0.0 0.0 0.00 0.00 0.00 31 1010.2
20260504170526 62 0 0.0 0.0 0.00 0.00 0.00 32 1010.1
20260504151026 60 320 0.0 5.0 0.00 0.00 0.00 39 1009.8
20260504150526 60 294 0.0 5.0 0.00 0.00 0.00 41 1009.7
20260504141026 59 351 1.0 2.0 0.00 0.00 0.00 44 1009.3
20260504140526 59 334 0.0 2.0 0.00 0.00 0.00 44 1009.3
20260504130526 59 0 0.0 0.0 0.00 0.00 0.00 40 1008.7
20260504110525 60 0 0.0 0.0 0.00 0.00 0.00 41 1008.7
20260504100525 60 0 0.0 0.0 0.00 0.00 0.00 44 1008.7
20260504081528 60 316 0.0 2.0 0.00 0.00 0.00 43 1008.9
20260504081025 61 338 0.0 1.0 0.00 0.00 0.00 43 1008.9
20260504080525 61 0 0.0 0.0 0.00 0.00 0.00 43 1008.9
20260504050525 64 0 0.0 2.0 0.00 0.00 0.00 34 1008.8
20260504050025 64 0 0.0 2.0 0.00 0.00 0.00 34 1008.8
20260504045524 64 324 0.0 2.0 0.00 0.00 0.00 34 1008.8
20260504045027 64 0 0.0 0.0 0.00 0.00 0.00 35 1008.8
20260504044524 64 338 0.0 0.0 0.00 0.00 0.00 35 1008.8
20260504044025 64 0 0.0 0.0 0.00 0.00 0.00 34 1008.8
20260504043525 64 338 0.0 2.0 0.00 0.00 0.00 35 1008.8
20260504043024 64 330 0.0 2.0 0.00 0.00 0.00 35 1008.8
20260504042524 64 25 0.0 2.0 0.00 0.00 0.00 35 1008.7
20260504042027 64 326 0.0 2.0 0.00 0.00 0.00 34 1008.7
20260504041524 64 0 0.0 0.0 0.00 0.00 0.00 34 1008.7
20260504041025 64 308 0.0 3.0 0.00 0.00 0.00 34 1008.6
20260504040526 64 344 0.0 3.0 0.00 0.00 0.00 34 1008.6
20260504040025 64 330 0.0 3.0 0.00 0.00 0.00 33 1008.5
20260504035524 65 4 0.0 3.0 0.00 0.00 0.00 34 1008.6
20260504035025 65 322 0.0 3.0 0.00 0.00 0.00 33 1008.6
20260504034524 65 330 0.0 3.0 0.00 0.00 0.00 32 1008.6
20260504034025 65 347 1.0 3.0 0.00 0.00 0.00 32 1008.5
20260504033525 65 345 0.0 3.0 0.00 0.00 0.00 32 1008.5
20260504033025 65 338 0.0 2.0 0.00 0.00 0.00 32 1008.4
20260504032524 65 317 0.0 2.0 0.00 0.00 0.00 31 1008.4
20260504032026 65 22 1.0 1.0 0.00 0.00 0.00 31 1008.4
20260504031524 65 21 0.0 3.0 0.00 0.00 0.00 30 1008.4
20260504031024 65 315 0.0 3.0 0.00 0.00 0.00 30 1008.4
20260504030526 66 327 1.0 3.0 0.00 0.00 0.00 28 1008.4
20260504030024 66 340 1.0 4.0 0.00 0.00 0.00 28 1008.3
20260504025524 66 338 2.0 4.0 0.00 0.00 0.00 27 1008.3
20260504025024 66 338 2.0 4.0 0.00 0.00 0.00 27 1008.3
20260504024524 66 322 1.0 4.0 0.00 0.00 0.00 26 1008.4
20260504024024 67 306 2.0 5.0 0.00 0.00 0.00 26 1008.3
20260504023524 67 316 2.0 5.0 0.00 0.00 0.00 26 1008.4
20260504023024 67 327 3.0 5.0 0.00 0.00 0.00 25 1008.3
20260504022524 68 320 3.0 4.0 0.00 0.00 0.00 25 1008.4
20260504022024 68 326 2.0 4.0 0.00 0.00 0.00 25 1008.4
20260504021524 68 329 3.0 4.0 0.00 0.00 0.00 25 1008.4
20260504021024 68 310 2.0 4.0 0.00 0.00 0.00 24 1008.4
20260504020526 69 323 2.0 3.0 0.00 0.00 0.00 24 1008.4
20260504020024 69 326 2.0 3.0 0.00 0.00 0.00 22 1008.4
20260504015524 69 337 1.0 3.0 0.00 0.00 0.00 22 1008.5
20260504015024 70 331 2.0 4.0 0.00 0.00 0.00 21 1008.5
20260504014524 70 324 2.0 4.0 0.00 0.00 0.00 22 1008.6
20260504014024 70 338 2.0 4.0 0.00 0.00 0.00 21 1008.6
20260504013528 70 337 2.0 4.0 0.00 0.00 0.00 21 1008.6
20260504013025 70 323 2.0 3.0 0.00 0.00 0.00 20 1008.6
20260504012524 70 331 1.0 4.0 0.00 0.00 0.00 21 1008.7
20260504012025 70 323 1.0 4.0 0.00 0.00 0.00 21 1008.7
20260504011524 70 344 1.0 4.0 0.00 0.00 0.00 21 1008.6
20260504011024 70 320 2.0 4.0 0.00 0.00 0.00 21 1008.7
20260504010524 71 327 2.0 4.0 0.00 0.00 0.00 22 1008.7
20260504010024 71 306 2.0 4.0 0.00 0.00 0.00 22 1008.8
20260504005524 71 327 1.0 4.0 0.00 0.00 0.00 23 1008.8
20260504005026 71 345 1.0 4.0 0.00 0.00 0.00 22 1008.8
20260504004524 71 344 1.0 4.0 0.00 0.00 0.00 22 1008.9
20260504004024 71 323 2.0 3.0 0.00 0.00 0.00 23 1008.9
20260504003524 71 333 1.0 3.0 0.00 0.00 0.00 23 1008.9
20260504003024 71 324 1.0 3.0 0.00 0.00 0.00 23 1009.1
20260504002524 72 324 2.0 3.0 0.00 0.00 0.00 22 1008.9
20260504002024 72 316 1.0 3.0 0.00 0.00 0.00 23 1009.1
20260504001524 72 330 1.0 3.0 0.00 0.00 0.00 24 1008.9
20260504001024 72 337 1.0 5.0 0.00 0.00 0.00 23 1008.9
20260504000524 72 341 0.0 5.0 0.00 0.00 0.00 24 1008.9
20260504000024 72 294 1.0 5.0 0.00 0.00 0.00 23 1009.1
20260503235524 72 341 2.0 3.0 0.00 0.00 0.00 22 1009.1
20260503235024 72 324 0.0 2.0 0.00 0.00 0.00 23 1009.1
20260503234524 72 323 0.0 4.0 0.00 0.00 0.00 23 1009.2
20260503234025 72 329 1.0 4.0 0.00 0.00 0.00 22 1009.3
20260503233524 73 313 0.0 4.0 0.00 0.00 0.00 23 1009.3
20260503233024 73 343 1.0 2.0 0.00 0.00 0.00 23 1009.3
20260503232524 73 315 0.0 2.0 0.00 0.00 0.00 24 1009.3
20260503232024 73 345 0.0 4.0 0.00 0.00 0.00 24 1009.3
20260503231524 73 340 0.0 4.0 0.00 0.00 0.00 24 1009.4
20260503231024 73 44 0.0 4.0 0.00 0.00 0.00 24 1009.4
20260503230524 74 0 1.0 2.0 0.00 0.00 0.00 24 1009.4
20260503230024 74 296 0.0 2.0 0.00 0.00 0.00 23 1009.5
20260503225524 74 323 0.0 3.0 0.00 0.00 0.00 23 1009.6
20260503225024 74 5 1.0 3.0 0.00 0.00 0.00 23 1009.7
20260503224524 74 291 0.0 3.0 0.00 0.00 0.00 24 1009.7
20260503224024 75 352 0.0 2.0 0.00 0.00 0.00 23 1009.7
20260503223524 75 260 0.0 2.0 0.00 0.00 0.00 24 1009.8
20260503223024 75 273 0.0 4.0 0.00 0.00 0.00 23 1009.8
20260503222524 75 350 0.0 4.0 0.00 0.00 0.00 23 1009.9
20260503222025 75 301 0.0 4.0 0.00 0.00 0.00 23 1009.9
20260503221524 75 268 1.0 7.0 0.00 0.00 0.00 24 1010.1
20260503221024 75 281 1.0 7.0 0.00 0.00 0.00 24 1010.2
20260503220524 75 277 4.0 7.0 0.00 0.00 0.00 23 1010.1
20260503220024 75 264 4.0 7.0 0.00 0.00 0.00 23 1010.1
20260503215524 75 254 2.0 7.0 0.00 0.00 0.00 22 1010.2
20260503215024 75 257 0.0 7.0 0.00 0.00 0.00 20 1010.3
20260503214524 75 49 0.0 2.0 0.00 0.00 0.00 18 1010.3
20260503214024 75 60 0.0 2.0 0.00 0.00 0.00 19 1010.3
20260503213526 75 0 0.0 0.0 0.00 0.00 0.00 21 1010.3
20260503213025 75 0 0.0 0.0 0.00 0.00 0.00 19 1010.4
20260503212524 75 0 0.0 0.0 0.00 0.00 0.00 19 1010.4
20260503212024 75 0 0.0 0.0 0.00 0.00 0.00 20 1010.4
20260503211524 75 0 0.0 2.0 0.00 0.00 0.00 19 1010.4
20260503211024 75 0 0.0 2.0 0.00 0.00 0.00 18 1010.4
20260503210525 75 16 0.0 2.0 0.00 0.00 0.00 18 1010.4
20260503210024 74 0 0.0 2.0 0.00 0.00 0.00 17 1010.5
20260503205524 75 22 0.0 2.0 0.00 0.00 0.00 17 1010.6
20260503205024 75 51 0.0 2.0 0.00 0.00 0.00 17 1010.6
20260503204524 75 0 0.0 2.0 0.00 0.00 0.00 18 1010.6
20260503204024 75 100 0.0 2.0 0.00 0.00 0.00 18 1010.6
20260503203524 74 60 0.0 4.0 0.00 0.00 0.00 18 1010.7
20260503203024 75 51 0.0 4.0 0.00 0.00 0.00 17 1010.7
20260503202524 74 42 0.0 4.0 0.00 0.00 0.00 18 1010.7
20260503202024 74 140 0.0 6.0 0.00 0.00 0.00 18 1010.7
20260503201524 74 5 0.0 6.0 0.00 0.00 0.00 19 1010.7
20260503201024 74 22 0.0 6.0 0.00 0.00 0.00 18 1010.7
20260503200524 74 65 0.0 5.0 0.00 0.00 0.00 19 1010.8
20260503200024 74 117 0.0 3.0 0.00 0.00 0.00 18 1010.8
20260503195524 74 40 1.0 3.0 0.00 0.00 0.00 20 1010.9
20260503195024 74 44 0.0 3.0 0.00 0.00 0.00 20 1010.8
20260503194524 74 102 1.0 4.0 0.00 0.00 0.00 20 1010.9
20260503194024 74 15 0.0 4.0 0.00 0.00 0.00 20 1010.9
20260503193524 73 88 0.0 4.0 0.00 0.00 0.00 20 1010.9
20260503193024 73 113 2.0 4.0 0.00 0.00 0.00 20 1010.9
20260503192523 73 51 0.0 4.0 0.00 0.00 0.00 22 1010.9
20260503192024 73 35 0.0 2.0 0.00 0.00 0.00 21 1010.9